createdAt,value
2023-05-10T05:48:55.118Z,101482.79
2023-05-10T05:51:23.101Z,101481.49
2023-05-10T05:53:51.101Z,101482.95
2023-05-10T05:56:25.331Z,101479.78
2023-05-10T05:58:53.630Z,101483.05
2023-05-10T06:01:22.194Z,101481.08
2023-05-10T06:03:53.190Z,101482.54
2023-05-10T06:06:21.756Z,101480.97
2023-05-10T06:08:49.683Z,101482.17
2023-05-10T06:11:17.654Z,101485.64
2023-05-10T06:13:45.732Z,101479.73
2023-05-10T06:16:14.463Z,101483.05
2023-05-10T06:18:42.468Z,101485.91
2023-05-10T06:21:10.457Z,101484.47
2023-05-10T06:23:38.482Z,101483.73
2023-05-10T06:26:06.455Z,101485.66
2023-05-10T06:28:34.786Z,101481.94
2023-05-10T06:31:03.024Z,101473.88
2023-05-10T06:33:31.168Z,101478.11
2023-05-10T06:35:59.148Z,101478.36
2023-05-10T06:38:27.532Z,101479.19
2023-05-10T06:40:55.513Z,101477.11
2023-05-10T06:43:23.471Z,101475.40
2023-05-10T06:45:51.423Z,101478.08
2023-05-10T06:48:19.427Z,101475.69
2023-05-10T06:50:47.401Z,101475.39
2023-05-10T06:53:15.414Z,101473.16
2023-05-10T06:55:43.334Z,101470.91
2023-05-10T06:58:11.556Z,101471.77
2023-05-10T07:00:41.710Z,101472.27
2023-05-10T07:03:10.904Z,101470.25
2023-05-10T07:05:39.014Z,101473.26
2023-05-10T07:08:07.094Z,101470.80
2023-05-10T07:10:35.172Z,101475.26
2023-05-10T07:13:03.392Z,101470.52
2023-05-10T07:15:31.603Z,101465.81
2023-05-10T07:17:59.722Z,101465.16
2023-05-10T07:20:27.976Z,101461.83
2023-05-10T07:22:56.089Z,101464.89
2023-05-10T07:25:24.078Z,101466.83
2023-05-10T07:27:52.122Z,101464.50
2023-05-10T07:30:20.771Z,101464.06
2023-05-10T07:32:48.919Z,101466.61
2023-05-10T07:35:17.295Z,101463.16
2023-05-10T07:37:46.748Z,101464.69
2023-05-10T07:40:14.774Z,101464.62
2023-05-10T07:42:42.698Z,101464.32
2023-05-10T07:45:10.718Z,101462.11
2023-05-10T07:47:38.743Z,101463.36
2023-05-10T07:50:07.933Z,101462.42
2023-05-10T07:52:35.921Z,101459.35
2023-05-10T07:55:04.050Z,101457.14
2023-05-10T07:57:32.133Z,101455.55
2023-05-10T08:00:00.206Z,101460.60
2023-05-10T08:02:28.320Z,101464.50
2023-05-10T08:04:57.035Z,101458.96
2023-05-10T08:07:25.643Z,101463.35
2023-05-10T08:09:53.580Z,101453.66
2023-05-10T08:12:21.764Z,101452.52
2023-05-10T08:14:49.759Z,101451.98
2023-05-10T08:17:19.781Z,101444.20
2023-05-10T08:19:48.423Z,101446.13
2023-05-10T08:22:16.793Z,101446.53
2023-05-10T08:24:44.721Z,101446.91
2023-05-10T08:27:12.645Z,101448.26
2023-05-10T08:29:49.615Z,101451.38
2023-05-10T08:32:18.892Z,101448.91
2023-05-10T08:34:47.016Z,101448.93
2023-05-10T08:37:15.041Z,101447.28
2023-05-10T08:39:43.147Z,101444.62
2023-05-10T08:42:11.482Z,101440.34
2023-05-10T08:44:39.728Z,101437.46
2023-05-10T08:47:08.471Z,101442.80
2023-05-10T08:49:36.615Z,101442.49
2023-05-10T08:52:05.421Z,101442.05
2023-05-10T08:54:34.382Z,101445.95
2023-05-10T08:57:02.534Z,101438.31
2023-05-10T08:59:30.512Z,101429.52
2023-05-10T09:02:01.684Z,101436.16
2023-05-10T09:04:29.762Z,101441.30
2023-05-10T09:06:58.059Z,101443.04
2023-05-10T09:09:26.220Z,101434.74
2023-05-10T09:11:54.551Z,101434.27
2023-05-10T09:14:22.614Z,101446.34
2023-05-10T09:16:50.748Z,101440.67
2023-05-10T09:19:18.745Z,101438.31
2023-05-10T09:21:46.819Z,101434.65
2023-05-10T09:24:14.801Z,101437.56
2023-05-10T09:26:52.566Z,101434.92
2023-05-10T09:29:20.621Z,101434.61
2023-05-10T09:31:52.305Z,101436.02
2023-05-10T09:34:22.278Z,101437.30
2023-05-10T09:37:06.980Z,101437.98
2023-05-10T09:39:36.037Z,101439.31
2023-05-10T09:42:06.380Z,101436.42
2023-05-10T09:44:34.703Z,101428.96
2023-05-10T09:47:03.130Z,101419.14
2023-05-10T09:49:31.504Z,101431.86
2023-05-10T09:52:04.794Z,101426.48
2023-05-10T09:54:33.652Z,101429.30
2023-05-10T09:57:02.084Z,101426.34
2023-05-10T09:59:30.317Z,101421.67
2023-05-10T10:01:59.310Z,101409.95
2023-05-10T10:04:27.732Z,101415.55
2023-05-10T10:07:05.619Z,101411.55
2023-05-10T10:09:34.727Z,101403.70
2023-05-10T10:12:03.202Z,101398.77
2023-05-10T10:14:31.289Z,101407.83
2023-05-10T10:17:08.341Z,101402.21
2023-05-10T10:19:37.362Z,101396.88
2023-05-10T10:22:06.996Z,101394.67
2023-05-10T10:24:35.169Z,101393.49
2023-05-10T10:27:29.980Z,101386.66
2023-05-10T10:30:27.566Z,101385.16
2023-05-10T10:33:16.491Z,101386.70
2023-05-10T10:35:48.718Z,101391.23
2023-05-10T10:38:17.614Z,101389.25
2023-05-10T10:40:45.652Z,101383.33
2023-05-10T10:43:43.066Z,101382.27
2023-05-10T10:46:15.335Z,101387.46
2023-05-10T10:48:52.682Z,101381.61
2023-05-10T10:51:21.128Z,101389.05
2023-05-10T10:53:49.181Z,101384.15
2023-05-10T10:56:17.129Z,101380.66
2023-05-10T10:58:52.295Z,101381.92
2023-05-10T11:01:20.711Z,101378.51
2023-05-10T11:04:01.217Z,101383.28
2023-05-10T11:06:36.214Z,101382.78
2023-05-10T11:09:12.544Z,101381.23
2023-05-10T11:11:51.109Z,101379.88
2023-05-10T11:14:21.241Z,101376.67
2023-05-10T11:16:49.438Z,101380.96
2023-05-10T11:19:18.342Z,101385.30
2023-05-10T11:21:50.181Z,101377.65
2023-05-10T11:24:20.274Z,101377.86
2023-05-10T11:26:50.559Z,101374.08
2023-05-10T11:29:18.720Z,101368.96
2023-05-10T11:31:48.054Z,101367.81
2023-05-10T11:34:31.375Z,101371.24
2023-05-10T11:37:00.870Z,101365.83
2023-05-10T11:39:32.779Z,101359.56
2023-05-10T11:42:01.237Z,101355.40
2023-05-10T11:44:33.094Z,101367.16
2023-05-10T11:47:04.586Z,101363.74
2023-05-10T11:49:32.569Z,101361.84
2023-05-10T11:52:08.412Z,101375.42
2023-05-10T11:54:36.603Z,101363.27
2023-05-10T11:57:07.812Z,101361.87
2023-05-10T11:59:35.807Z,101363.78
2023-05-10T12:02:04.574Z,101360.05
2023-05-10T12:04:32.671Z,101353.89
2023-05-10T12:07:00.679Z,101356.16
2023-05-10T12:09:42.710Z,101352.73
2023-05-10T12:12:16.724Z,101350.40
2023-05-10T12:14:44.857Z,101356.08
2023-05-10T12:17:14.139Z,101353.93
2023-05-10T12:19:42.167Z,101351.35
2023-05-10T12:22:10.163Z,101356.07
2023-05-10T12:24:39.335Z,101348.14
2023-05-10T12:29:58.539Z,101339.15
2023-05-10T12:32:40.579Z,101344.02
2023-05-10T12:35:09.296Z,101339.14
2023-05-10T12:37:40.047Z,101347.61
2023-05-10T12:40:09.266Z,101351.08
2023-05-10T12:42:37.658Z,101344.27
2023-05-10T12:45:06.614Z,101345.70
2023-05-10T12:47:34.495Z,101345.19
2023-05-10T12:50:03.707Z,101349.52
2023-05-10T12:52:33.117Z,101348.30
2023-05-10T12:55:01.475Z,101353.20
2023-05-10T12:57:29.709Z,101350.30
2023-05-10T12:59:57.659Z,101336.91
2023-05-10T13:02:25.729Z,101341.57
2023-05-10T13:04:53.994Z,101330.83
2023-05-10T13:07:22.086Z,101329.55
2023-05-10T13:09:49.989Z,101332.73
2023-05-10T13:12:17.890Z,101327.54
2023-05-10T13:14:46.151Z,101335.77
2023-05-10T13:17:14.197Z,101332.69
2023-05-10T13:19:42.275Z,101338.14
2023-05-10T13:22:10.235Z,101341.98
2023-05-10T13:24:38.216Z,101333.23
2023-05-10T13:27:06.350Z,101328.91
2023-05-10T13:29:34.248Z,101331.73
2023-05-10T13:32:02.293Z,101322.27
2023-05-10T13:34:30.678Z,101321.14
2023-05-10T13:36:58.785Z,101323.27
2023-05-10T13:39:26.866Z,101319.56
2023-05-10T13:41:55.758Z,101315.58
2023-05-10T13:44:24.595Z,101313.11
2023-05-10T13:46:52.567Z,101312.46
2023-05-10T13:49:20.560Z,101308.36
2023-05-10T13:51:48.526Z,101305.31
2023-05-10T13:54:18.731Z,101307.84
2023-05-10T13:56:48.427Z,101301.75
2023-05-10T13:59:16.609Z,101299.39
2023-05-10T14:01:44.699Z,101303.27
2023-05-10T14:04:12.723Z,101305.12
2023-05-10T14:06:40.852Z,101302.73
2023-05-10T14:09:08.891Z,101300.66
2023-05-10T14:11:36.923Z,101290.87
2023-05-10T14:14:04.861Z,101299.07
2023-05-10T14:16:32.821Z,101296.20
2023-05-10T14:19:00.863Z,101296.69
2023-05-10T14:21:30.858Z,101294.58
2023-05-10T14:23:58.894Z,101293.27
2023-05-10T14:26:27.400Z,101294.70
2023-05-10T14:28:55.422Z,101289.35
2023-05-10T14:31:25.726Z,101288.68
2023-05-10T14:33:54.306Z,101286.84
2023-05-10T14:36:22.263Z,101285.70
2023-05-10T14:38:50.296Z,101280.70
2023-05-10T14:41:18.729Z,101284.83
2023-05-10T14:43:47.093Z,101277.56
2023-05-10T14:46:15.126Z,101288.60
2023-05-10T14:48:43.205Z,101272.98
2023-05-10T14:51:11.404Z,101277.91
2023-05-10T14:53:39.445Z,101276.75
2023-05-10T14:56:08.361Z,101268.95
2023-05-10T14:58:36.850Z,101281.42
2023-05-10T15:01:05.188Z,101280.02
2023-05-10T15:03:33.932Z,101278.11
2023-05-10T15:06:02.416Z,101271.19
2023-05-10T15:08:30.750Z,101277.34
2023-05-10T15:10:59.773Z,101273.27
2023-05-10T15:13:27.795Z,101269.23
2023-05-10T15:15:55.875Z,101271.56
2023-05-10T15:18:26.702Z,101269.80
2023-05-10T15:20:56.327Z,101264.28
2023-05-10T15:23:24.412Z,101266.52
2023-05-10T15:25:56.873Z,101270.64
2023-05-10T15:28:25.384Z,101272.85
2023-05-10T15:30:53.488Z,101273.06
2023-05-10T15:33:21.732Z,101271.19
2023-05-10T15:35:49.756Z,101270.69
2023-05-10T15:38:17.732Z,101265.83
2023-05-10T15:40:45.675Z,101270.73
2023-05-10T15:43:13.735Z,101273.98
2023-05-10T15:45:41.755Z,101276.66
2023-05-10T15:48:09.743Z,101270.02
2023-05-10T15:50:37.802Z,101269.53
2023-05-10T15:53:05.821Z,101270.20
2023-05-10T15:55:35.170Z,101266.45
2023-05-10T15:58:03.180Z,101265.67
2023-05-10T16:00:31.409Z,101275.16
2023-05-10T16:03:03.531Z,101272.70
2023-05-10T16:05:34.323Z,101277.75
2023-05-10T16:08:02.512Z,101280.64
2023-05-10T16:10:33.713Z,101280.79
2023-05-10T16:13:03.892Z,101282.06
2023-05-10T16:15:31.861Z,101274.62
2023-05-10T16:17:59.966Z,101278.27
2023-05-10T16:20:28.364Z,101278.30
2023-05-10T16:22:56.337Z,101279.69
2023-05-10T16:25:24.281Z,101280.10
2023-05-10T16:27:52.419Z,101283.17
2023-05-10T16:30:21.759Z,101282.48
2023-05-10T16:32:51.981Z,101278.92
2023-05-10T16:35:20.938Z,101285.77
2023-05-10T16:37:48.942Z,101283.34
2023-05-10T16:40:17.412Z,101284.80
2023-05-10T16:42:45.592Z,101285.09
2023-05-10T16:45:13.591Z,101287.81
2023-05-10T16:47:41.773Z,101288.35
2023-05-10T16:50:10.002Z,101286.70
2023-05-10T16:52:37.954Z,101288.08
2023-05-10T16:55:06.652Z,101290.39
2023-05-10T16:57:35.350Z,101291.89
2023-05-10T17:00:04.997Z,101290.02
2023-05-10T17:02:33.228Z,101296.10
2023-05-10T17:05:03.437Z,101292.70
2023-05-10T17:07:31.604Z,101291.96
2023-05-10T17:09:59.799Z,101298.48
2023-05-10T17:12:28.146Z,101296.16
2023-05-10T17:14:58.724Z,101298.52
2023-05-10T17:17:28.057Z,101302.19
2023-05-10T17:19:56.219Z,101299.48
2023-05-10T17:22:24.995Z,101298.16
2023-05-10T17:24:53.069Z,101303.98
2023-05-10T17:27:21.198Z,101306.71
2023-05-10T17:29:49.170Z,101310.42
2023-05-10T17:32:17.127Z,101309.43
2023-05-10T17:34:45.669Z,101313.27
2023-05-10T17:37:13.950Z,101317.86
2023-05-10T17:39:42.260Z,101317.95
2023-05-10T17:42:10.828Z,101319.66
2023-05-10T17:44:39.116Z,101320.73
2023-05-10T17:47:07.292Z,101323.83
2023-05-10T17:49:35.426Z,101326.23
2023-05-10T17:52:04.839Z,101327.71
2023-05-10T17:54:34.718Z,101325.29
2023-05-10T17:57:03.901Z,101330.07
2023-05-10T17:59:32.258Z,101338.77
2023-05-10T18:02:01.735Z,101340.79
2023-05-10T18:04:29.772Z,101344.16
2023-05-10T18:07:01.501Z,101346.78
2023-05-10T18:09:29.877Z,101346.35
2023-05-10T18:11:57.916Z,101350.14
2023-05-10T18:14:39.776Z,101348.98
2023-05-10T18:17:10.264Z,101349.90
2023-05-10T18:19:38.571Z,101351.20
2023-05-10T18:22:09.853Z,101350.83
2023-05-10T18:24:40.061Z,101351.70
2023-05-10T18:27:09.050Z,101357.02
2023-05-10T18:29:37.827Z,101364.00
2023-05-10T18:32:06.608Z,101359.69
2023-05-10T18:34:34.951Z,101364.69
2023-05-10T18:37:07.928Z,101366.58
2023-05-10T18:39:39.132Z,101371.46
2023-05-10T18:42:07.574Z,101375.77
2023-05-10T18:44:35.687Z,101381.23
2023-05-10T18:47:03.687Z,101385.18
2023-05-10T18:49:32.314Z,101389.96
2023-05-10T18:52:00.598Z,101391.05
2023-05-10T18:54:29.166Z,101392.65
2023-05-10T18:56:58.820Z,101394.70
2023-05-10T18:59:28.102Z,101395.81
2023-05-10T19:01:57.495Z,101396.52
2023-05-10T19:04:26.190Z,101395.81
2023-05-10T19:06:56.091Z,101402.20
2023-05-10T19:09:24.323Z,101402.49
2023-05-10T19:11:52.370Z,101411.78
2023-05-10T19:14:20.825Z,101410.52
2023-05-10T19:16:48.762Z,101416.72
2023-05-10T19:19:17.987Z,101414.79
2023-05-10T19:21:46.320Z,101415.94
2023-05-10T19:24:14.822Z,101421.92
2023-05-10T19:26:43.132Z,101420.92
2023-05-10T19:29:13.512Z,101420.78
2023-05-10T19:31:41.714Z,101424.11
2023-05-10T19:34:09.667Z,101422.59
2023-05-10T19:36:37.744Z,101422.45
2023-05-10T19:39:05.918Z,101426.98
2023-05-10T19:41:34.066Z,101427.27
2023-05-10T19:44:02.172Z,101432.66
2023-05-10T19:46:31.551Z,101430.14
2023-05-10T19:48:59.755Z,101432.05
2023-05-10T19:51:27.660Z,101432.60
2023-05-10T19:53:56.026Z,101433.67
2023-05-10T19:56:23.976Z,101438.58
2023-05-10T19:58:52.043Z,101439.17
2023-05-10T20:01:20.146Z,101441.09
2023-05-10T20:03:48.285Z,101444.94
2023-05-10T20:06:16.370Z,101441.45
2023-05-10T20:08:44.514Z,101444.66
2023-05-10T20:11:12.551Z,101444.69
2023-05-10T20:13:40.475Z,101447.14
2023-05-10T20:16:09.700Z,101445.71
2023-05-10T20:18:38.319Z,101448.41
2023-05-10T20:21:06.625Z,101447.02
2023-05-10T20:23:34.715Z,101451.47
2023-05-10T20:26:02.857Z,101453.95
2023-05-10T20:28:31.118Z,101455.44
2023-05-10T20:31:00.626Z,101455.92
2023-05-10T20:33:29.157Z,101453.16
2023-05-10T20:35:57.559Z,101458.11
2023-05-10T20:38:25.608Z,101456.29
2023-05-10T20:40:53.596Z,101459.41
2023-05-10T20:43:21.859Z,101455.45
2023-05-10T20:45:50.149Z,101452.85
2023-05-10T20:48:19.742Z,101455.66
2023-05-10T20:50:47.910Z,101460.09
2023-05-10T20:53:16.018Z,101458.38
2023-05-10T20:55:44.623Z,101462.31
2023-05-10T20:58:12.697Z,101465.78
2023-05-10T21:00:40.715Z,101465.81
2023-05-10T21:03:09.035Z,101468.61
2023-05-10T21:05:37.276Z,101475.76
2023-05-10T21:08:05.960Z,101473.08
2023-05-10T21:10:34.093Z,101476.27
2023-05-10T21:13:02.096Z,101475.70
2023-05-10T21:15:30.568Z,101473.77
2023-05-10T21:17:58.563Z,101477.89
2023-05-10T21:20:26.858Z,101478.66
2023-05-10T21:22:54.881Z,101478.92
2023-05-10T21:25:23.418Z,101483.11
2023-05-10T21:27:51.688Z,101484.35
2023-05-10T21:30:20.287Z,101484.24
2023-05-10T21:32:48.436Z,101486.03
2023-05-10T21:35:30.808Z,101489.35
2023-05-10T21:37:58.999Z,101487.10
2023-05-10T21:40:26.970Z,101487.19
2023-05-10T21:42:55.151Z,101490.30
2023-05-10T21:45:23.307Z,101487.94
2023-05-10T21:47:51.344Z,101488.67
2023-05-10T21:50:19.512Z,101489.47
2023-05-10T21:52:47.846Z,101495.70
2023-05-10T21:55:15.821Z,101496.31
2023-05-10T21:57:44.920Z,101492.85
2023-05-10T22:00:13.819Z,101492.21
2023-05-10T22:02:41.897Z,101493.05
2023-05-10T22:05:10.081Z,101495.23
2023-05-10T22:07:38.065Z,101496.11
2023-05-10T22:10:08.470Z,101500.97
2023-05-10T22:12:36.539Z,101499.89
2023-05-10T22:17:38.352Z,101499.34
2023-05-10T22:20:09.555Z,101502.92
2023-05-10T22:22:37.671Z,101503.61
2023-05-10T22:25:07.562Z,101505.67
2023-05-10T22:27:35.681Z,101511.11
2023-05-10T22:30:04.203Z,101507.90
2023-05-10T22:32:37.142Z,101510.96
2023-05-10T22:35:07.282Z,101510.47
2023-05-10T22:37:35.270Z,101511.27
2023-05-10T22:40:14.199Z,101510.85
2023-05-10T22:42:42.260Z,101517.92
2023-05-10T22:45:10.694Z,101516.77
2023-05-10T22:47:38.809Z,101517.57
2023-05-10T22:50:07.345Z,101522.02
2023-05-10T22:52:35.650Z,101524.99
2023-05-10T22:55:03.725Z,101525.48
2023-05-10T22:57:31.649Z,101527.52
2023-05-10T22:59:59.759Z,101528.79
2023-05-10T23:02:27.961Z,101529.91
2023-05-10T23:05:02.551Z,101530.27
2023-05-10T23:07:30.732Z,101530.67
2023-05-10T23:09:58.792Z,101535.02
2023-05-10T23:12:26.789Z,101533.55
2023-05-10T23:14:54.976Z,101534.42
2023-05-10T23:17:22.932Z,101536.63
2023-05-10T23:19:51.396Z,101538.22
2023-05-10T23:22:21.047Z,101537.80
2023-05-10T23:24:48.968Z,101539.14
2023-05-10T23:27:16.973Z,101540.84
2023-05-10T23:29:45.128Z,101541.83
2023-05-10T23:32:13.187Z,101541.46
2023-05-10T23:34:41.316Z,101541.77
2023-05-10T23:37:09.318Z,101542.13
2023-05-10T23:39:37.401Z,101541.06
2023-05-10T23:42:05.745Z,101542.74
2023-05-10T23:44:33.679Z,101545.52
2023-05-10T23:47:01.681Z,101545.44
2023-05-10T23:49:29.571Z,101547.22
2023-05-10T23:51:57.489Z,101545.98
2023-05-10T23:54:25.626Z,101547.50
2023-05-10T23:56:53.602Z,101546.95
2023-05-10T23:59:21.602Z,101544.27
